Springfield, IL (62705)

9:11 AM CST on January 24, 2017 (GMT -0600)
Gietl Park / Northgate * Springfield, IL | | Change Station

Elev 591 ft 39.83 °N, 89.61 °W | Updated 15 seconds ago

Overcast
Overcast
39.6 °F
Feels Like 40 °F
N
2.7
Wind Variable Wind from SSE

Today
High -- | Low -- °F
--% Chance of Precip.
Yesterday
High -- | Low -- °F
Precip. -- in
Pressure 29.91 in
Visibility 10.0 miles
Clouds Overcast 1900 ft
Windchill 40 °F
Dew Point 33 °F
Humidity 77%
Rainfall 0.00 in
Snow Depth Not available.
7:12 AM 5:09 PM
Waning Crescent, 11% visible
METAR KSPI 241452Z 16003KT 10SM OVC019 04/01 A2990 RMK AO2 SLP128 T00390006 55004
Pressure 29.91 in
Visibility 10.0 miles
Clouds Overcast 1900 ft
Windchill 40 °F
Dew Point 33 °F
Humidity 77%
Rainfall 0.00 in
Snow Depth Not available.
7:12 AM 5:09 PM
Waning Crescent, 11% visible
METAR KSPI 241452Z 16003KT 10SM OVC019 04/01 A2990 RMK AO2 SLP128 T00390006 55004

Get Your Daily Forecast Email!

Thanks for signing up!

Be on the lookout for a verification email in your inbox.

You'll start receiving the daily forecast at 8 AM.

×

10-Day Weather Forecast

Almanac

Astronomy

Jan. 24, 2017 Rise Set
Actual Time
Civil Twilight
Nautical Twilight
Astronomical Twilight
Moon
Length of Visible Light
Length of Day
Tomorrow will be .
, % of the Moon is Illuminated

Today's Extremes

State Highs State Lows

Community

WunderPhotos

Upload Photos

1,962,540 photos uploaded!

WunderBlog® & News

Nearby

Air Quality

  Air Quality AQ Index Pollutant
Not available.

Snow Depth

Station Depth Elevation

Earthquake Activity

City Distance Mag. Time & Date
Minimum magnitude displayed is 2.5.

Coastal Water Temperatures

Place Temperature

Stations

Nearby Weather Stations

Station Location Temp. Windchill Dew Point Humidity Wind Precip. Elev Updated Type
                   

Watches & Warnings

There are currently no watches in effect.